Time;durP1;ratioP1;P1;durP2;ratioP2;P2;SDS_P1;SDS_P2;PMS_P1;PMS_P2;Temp;Humidity;BMP_temperature;BMP_pressure;BME280_temperature;BME280_humidity;BME280_pressure;Samples;Min_cycle;Max_cycle;Signal;HPM_P1;HPM_P2
2022/11/19 00:00:53;;;;;;;600.63;273.60;;;7.50;99.90;;;;;;5115990;28;20087;-63
2022/11/19 00:03:21;;;;;;;541.65;248.68;;;7.50;99.90;;;;;;5117328;28;20092;-62
2022/11/19 00:05:49;;;;;;;559.78;255.82;;;7.50;99.90;;;;;;5117097;28;20027;-62
2022/11/19 00:08:19;;;;;;;529.67;233.50;;;7.50;99.90;;;;;;5117172;28;20039;-63
2022/11/19 00:10:46;;;;;;;497.83;219.48;;;7.60;99.90;;;;;;5117005;28;20035;-63
2022/11/19 00:13:13;;;;;;;420.77;188.10;;;7.60;99.90;;;;;;5116928;28;20058;-63
2022/11/19 00:15:40;;;;;;;390.02;172.65;;;7.50;99.90;;;;;;5116804;28;20048;-63
2022/11/19 00:18:06;;;;;;;313.02;147.98;;;7.50;99.90;;;;;;5117175;28;20027;-63
2022/11/19 00:20:34;;;;;;;247.23;117.97;;;7.60;99.90;;;;;;5116973;28;20031;-63
2022/11/19 00:23:00;;;;;;;211.05;105.20;;;7.50;99.90;;;;;;5116795;28;20039;-63
2022/11/19 00:25:28;;;;;;;159.77;82.78;;;7.50;99.90;;;;;;5116726;28;20032;-63
2022/11/19 00:27:56;;;;;;;132.75;70.45;;;7.50;99.90;;;;;;5116828;28;20085;-63
2022/11/19 00:30:22;;;;;;;135.38;70.38;;;7.50;99.90;;;;;;5116743;28;20354;-63
2022/11/19 00:32:48;;;;;;;129.85;63.60;;;7.40;99.90;;;;;;5116636;28;20073;-63
2022/11/19 00:35:14;;;;;;;132.45;63.42;;;7.30;99.90;;;;;;5116608;28;20027;-63
2022/11/19 00:37:40;;;;;;;147.68;68.40;;;7.40;99.90;;;;;;5116557;28;20024;-63
2022/11/19 00:40:07;;;;;;;151.45;70.63;;;7.30;99.90;;;;;;5115144;28;20477;-63
2022/11/19 00:42:34;;;;;;;140.35;70.95;;;7.30;99.90;;;;;;5116449;28;20100;-63
2022/11/19 00:45:00;;;;;;;150.52;75.97;;;7.30;99.90;;;;;;5116199;28;20031;-63
2022/11/19 00:47:26;;;;;;;158.45;72.47;;;7.20;99.90;;;;;;5116292;28;20031;-63
2022/11/19 00:49:51;;;;;;;203.65;82.00;;;7.10;99.90;;;;;;5116244;28;20084;-63
2022/11/19 00:52:17;;;;;;;209.05;85.57;;;7.10;99.90;;;;;;5116168;28;20038;-63
2022/11/19 00:54:43;;;;;;;173.73;77.68;;;7.20;99.90;;;;;;5116025;28;20059;-63
2022/11/19 00:57:09;;;;;;;148.63;62.35;;;7.10;99.90;;;;;;5116230;28;20028;-63
2022/11/19 00:59:35;;;;;;;95.03;46.92;;;7.10;99.90;;;;;;5115962;28;20511;-63
2022/11/19 01:02:01;;;;;;;96.80;46.83;;;7.10;99.90;;;;;;5116104;28;20046;-63
2022/11/19 01:04:27;;;;;;;216.15;81.40;;;7.00;99.90;;;;;;5116120;28;20038;-63
2022/11/19 01:06:52;;;;;;;301.27;110.63;;;7.00;99.90;;;;;;5115900;28;20031;-63
2022/11/19 01:09:19;;;;;;;302.30;109.55;;;7.00;99.90;;;;;;5114587;28;20062;-63
2022/11/19 01:11:45;;;;;;;189.00;76.57;;;7.10;99.90;;;;;;5115961;28;20064;-63
2022/11/19 01:14:11;;;;;;;191.38;84.47;;;7.10;99.90;;;;;;5115692;28;20039;-63
2022/11/19 01:16:40;;;;;;;176.93;77.40;;;7.20;99.90;;;;;;5115806;28;20019;-63
2022/11/19 01:19:09;;;;;;;205.70;88.43;;;7.30;99.90;;;;;;5115793;28;20529;-62
2022/11/19 01:21:35;;;;;;;208.50;89.93;;;7.20;99.90;;;;;;5115618;28;20174;-62
2022/11/19 01:24:02;;;;;;;135.90;64.55;;;7.20;99.90;;;;;;5115686;28;20023;-62
2022/11/19 01:26:29;;;;;;;135.32;63.58;;;7.00;99.90;;;;;;5115511;28;20030;-62
2022/11/19 01:28:55;;;;;;;115.80;55.05;;;6.90;99.90;;;;;;5115609;28;20393;-63
2022/11/19 01:31:25;;;;;;;128.88;57.35;;;7.00;99.90;;;;;;5115528;28;20043;-62
2022/11/19 01:33:52;;;;;;;134.38;63.28;;;6.90;99.90;;;;;;5115510;28;20024;-63
2022/11/19 01:36:23;;;;;;;181.40;83.82;;;6.60;99.90;;;;;;5115128;28;20110;-62
2022/11/19 01:38:49;;;;;;;163.10;71.65;;;6.60;99.90;;;;;;5114036;28;20126;-63
2022/11/19 01:41:21;;;;;;;136.23;61.63;;;6.60;99.90;;;;;;5115513;28;20043;-63
2022/11/19 01:44:06;;;;;;;131.93;57.08;;;6.50;99.90;;;;;;5115285;28;20028;-63
2022/11/19 01:46:35;;;;;;;135.65;61.33;;;6.50;99.90;;;;;;5115261;28;20115;-63
2022/11/19 01:49:17;;;;;;;96.30;48.08;;;6.70;99.90;;;;;;5115147;28;20377;-63
2022/11/19 01:51:53;;;;;;;71.55;40.08;;;6.70;99.90;;;;;;5115315;28;20035;-63
2022/11/19 01:54:25;;;;;;;62.22;35.03;;;6.60;99.90;;;;;;5115274;28;20032;-62
2022/11/19 01:56:53;;;;;;;72.95;39.83;;;6.60;99.90;;;;;;5115161;28;20030;-63
2022/11/19 01:59:19;;;;;;;108.28;53.72;;;6.40;99.90;;;;;;5115110;28;20031;-63
2022/11/19 02:01:45;;;;;;;76.53;41.38;;;6.40;99.90;;;;;;5113742;28;20122;-62
2022/11/19 02:04:14;;;;;;;61.58;34.58;;;6.50;99.90;;;;;;5115050;28;20100;-63
2022/11/19 02:06:40;;;;;;;70.22;37.97;;;6.40;99.90;;;;;;5115212;28;20028;-63
2022/11/19 02:09:06;;;;;;;83.30;43.97;;;6.30;99.90;;;;;;5115038;28;20076;-63
2022/11/19 02:11:58;;;;;;;116.53;57.47;;;6.20;99.90;;;;;;5115004;28;20088;-63
2022/11/19 02:14:45;;;;;;;130.90;63.50;;;6.10;99.90;;;;;;5114904;28;20054;-63
2022/11/19 02:17:42;;;;;;;115.88;54.65;;;6.10;99.90;;;;;;5115020;28;20028;-62
2022/11/19 02:20:11;;;;;;;67.55;36.88;;;6.00;99.90;;;;;;5114937;28;20032;-63
2022/11/19 02:23:02;;;;;;;71.35;33.58;;;6.20;99.90;;;;;;5114709;28;20118;-63
2022/11/19 02:25:36;;;;;;;62.42;33.40;;;6.10;99.90;;;;;;5114794;28;20450;-63
2022/11/19 02:28:28;;;;;;;66.13;36.65;;;6.30;99.90;;;;;;5114843;28;20392;-63
2022/11/19 02:31:18;;;;;;;67.65;35.53;;;6.10;99.90;;;;;;5103930;28;20032;-63
2022/11/19 02:33:47;;;;;;;71.93;36.90;;;6.10;99.90;;;;;;5102516;28;20039;-63
2022/11/19 02:36:27;;;;;;;68.07;35.42;;;6.10;99.90;;;;;;5114833;28;20055;-63
2022/11/19 02:39:01;;;;;;;74.05;39.85;;;6.20;99.90;;;;;;5114898;28;20023;-62
2022/11/19 02:41:45;;;;;;;85.03;44.33;;;6.10;99.90;;;;;;5114533;28;20027;-62
2022/11/19 02:47:07;;;;;;;100.65;48.97;;;6.20;99.90;;;;;;5115840;28;20024;-63
2022/11/19 02:49:36;;;;;;;113.93;51.03;;;6.20;99.90;;;;;;5118541;28;20027;-62
2022/11/19 02:52:03;;;;;;;108.43;51.17;;;6.30;99.90;;;;;;5118542;28;20024;-62
2022/11/19 02:54:29;;;;;;;105.35;52.25;;;6.40;99.90;;;;;;5118586;28;20118;-63
2022/11/19 02:56:59;;;;;;;103.72;51.45;;;6.50;99.90;;;;;;5118541;28;20069;-63
2022/11/19 03:05:09;;;;;;;103.63;48.10;;;6.60;99.90;;;;;;5118288;28;20134;-62
2022/11/19 03:07:36;;;;;;;114.93;54.45;;;6.60;99.90;;;;;;5118261;28;20059;-62
2022/11/19 03:10:04;;;;;;;117.30;56.03;;;6.60;99.90;;;;;;5118211;27;20058;-63
2022/11/19 03:12:36;;;;;;;99.28;50.33;;;6.60;99.90;;;;;;5118287;28;20020;-63
2022/11/19 03:18:30;;;;;;;98.57;48.65;;;6.30;99.90;;;;;;5116776;28;20046;-63
2022/11/19 03:21:27;;;;;;;88.22;43.38;;;6.30;99.90;;;;;;5103632;28;20059;-63
2022/11/19 03:24:04;;;;;;;85.55;39.85;;;6.40;99.90;;;;;;5116337;28;20047;-62
2022/11/19 03:26:35;;;;;;;85.57;40.67;;;6.40;99.90;;;;;;5117913;28;20035;-63
2022/11/19 03:29:04;;;;;;;;;;;6.30;99.90;;;;;;5118416;28;20032;-62
2022/11/19 03:31:32;;;;;;;70.43;33.90;;;6.30;99.90;;;;;;5117634;28;19907;-62
2022/11/19 03:34:01;;;;;;;61.08;30.92;;;6.30;99.90;;;;;;5118093;28;20094;-63
2022/11/19 03:36:35;;;;;;;64.80;31.92;;;6.20;99.90;;;;;;5117768;28;20396;-63
2022/11/19 03:39:06;;;;;;;70.05;31.15;;;6.20;99.90;;;;;;5117675;28;20377;-63
2022/11/19 03:41:34;;;;;;;69.53;31.27;;;6.10;99.90;;;;;;5117697;28;20035;-63
2022/11/19 03:44:23;;;;;;;66.00;31.40;;;6.10;99.90;;;;;;5117436;28;20385;-63
2022/11/19 03:46:57;;;;;;;79.22;35.28;;;6.10;99.90;;;;;;5117019;28;20046;-63
2022/11/19 03:49:28;;;;;;;112.45;39.20;;;6.00;99.90;;;;;;5116365;28;20109;-63
2022/11/19 03:52:11;;;;;;;80.68;35.85;;;6.00;99.90;;;;;;5117529;28;20161;-63
2022/11/19 03:54:38;;;;;;;123.55;43.28;;;6.00;99.90;;;;;;5116255;28;20102;-63
2022/11/19 03:57:10;;;;;;;90.53;36.28;;;6.00;99.90;;;;;;5117360;28;20027;-63
2022/11/19 03:59:36;;;;;;;88.03;37.10;;;6.00;99.90;;;;;;5117121;28;20036;-62
2022/11/19 04:02:12;;;;;;;109.65;43.42;;;6.10;99.90;;;;;;5116996;28;20030;-62
2022/11/19 04:04:38;;;;;;;124.25;47.90;;;6.00;99.90;;;;;;5115756;28;20039;-63
2022/11/19 04:07:07;;;;;;;114.35;43.35;;;6.00;99.90;;;;;;5117185;28;20035;-63
2022/11/19 04:09:33;;;;;;;112.97;42.47;;;6.00;99.90;;;;;;5117120;28;20070;-63
2022/11/19 04:12:00;;;;;;;103.38;43.33;;;6.00;99.90;;;;;;5116903;28;20023;-63
2022/11/19 04:14:26;;;;;;;130.40;44.95;;;6.10;99.90;;;;;;5116864;28;20122;-62
2022/11/19 04:16:52;;;;;;;91.38;39.72;;;6.10;99.90;;;;;;5117133;28;20055;-62
2022/11/19 04:19:18;;;;;;;87.90;39.88;;;6.10;99.90;;;;;;5116807;28;20031;-62
2022/11/19 04:21:44;;;;;;;99.88;39.20;;;6.30;99.90;;;;;;5116824;28;20526;-62
2022/11/19 04:24:10;;;;;;;107.70;38.38;;;6.20;99.90;;;;;;5115471;28;20028;-63
2022/11/19 04:26:36;;;;;;;112.15;38.60;;;6.20;99.90;;;;;;5116765;28;20024;-63
2022/11/19 04:29:02;;;;;;;143.60;44.55;;;6.10;99.90;;;;;;5116779;28;20031;-63
2022/11/19 04:31:28;;;;;;;74.75;36.53;;;6.00;99.90;;;;;;5116765;28;20023;-63
2022/11/19 04:33:53;;;;;;;116.07;40.72;;;6.00;99.90;;;;;;5116512;28;20730;-63
2022/11/19 04:36:19;;;;;;;112.63;40.85;;;6.00;99.90;;;;;;5116630;28;20122;-63
2022/11/19 04:38:45;;;;;;;126.47;40.88;;;6.00;99.90;;;;;;5116640;28;20035;-63
2022/11/19 04:41:11;;;;;;;184.30;45.72;;;6.00;99.90;;;;;;5116545;28;20031;-63
2022/11/19 04:43:37;;;;;;;98.75;36.15;;;6.00;99.90;;;;;;5116381;28;20031;-63
2022/11/19 04:46:03;;;;;;;217.20;43.25;;;6.00;99.90;;;;;;5116380;28;20051;-62
2022/11/19 04:48:29;;;;;;;167.82;42.55;;;6.00;99.90;;;;;;5116200;28;20016;-62
2022/11/19 04:50:55;;;;;;;102.97;34.90;;;6.00;99.90;;;;;;5116466;28;20027;-63
2022/11/19 04:53:20;;;;;;;91.10;37.08;;;6.00;99.90;;;;;;5116284;28;20026;-63
2022/11/19 04:55:46;;;;;;;113.07;38.25;;;6.00;99.90;;;;;;5115984;28;20038;-63
2022/11/19 04:58:12;;;;;;;99.22;38.95;;;6.20;99.90;;;;;;5116120;28;20032;-62
2022/11/19 05:00:38;;;;;;;118.20;42.83;;;6.10;99.90;;;;;;5116071;28;20023;-63
2022/11/19 05:03:04;;;;;;;163.98;47.22;;;6.10;99.90;;;;;;5115930;28;20505;-63
2022/11/19 05:05:30;;;;;;;87.00;34.10;;;6.10;99.90;;;;;;5115942;28;20028;-63
2022/11/19 05:07:56;;;;;;;92.40;35.45;;;6.10;99.90;;;;;;5115968;28;20038;-62
2022/11/19 05:10:22;;;;;;;87.32;35.50;;;6.20;99.90;;;;;;5115135;28;20023;-63
2022/11/19 05:12:48;;;;;;;101.10;36.53;;;6.20;99.90;;;;;;5115999;28;20414;-62
2022/11/19 05:15:14;;;;;;;90.47;34.67;;;6.30;99.90;;;;;;5115848;28;20450;-63
2022/11/19 05:17:40;;;;;;;83.03;33.17;;;6.30;99.90;;;;;;5115631;28;20031;-63
2022/11/19 05:20:06;;;;;;;80.35;34.08;;;6.30;99.90;;;;;;5115753;28;20034;-62
2022/11/19 05:22:32;;;;;;;93.40;33.30;;;6.20;99.90;;;;;;5115514;28;20039;-63
2022/11/19 05:24:58;;;;;;;117.68;38.42;;;6.30;99.90;;;;;;5115575;28;20031;-63
2022/11/19 05:27:24;;;;;;;112.78;38.92;;;6.30;99.90;;;;;;5115637;28;20035;-63
2022/11/19 05:29:50;;;;;;;76.45;35.17;;;6.30;99.90;;;;;;5115604;28;20057;-63
2022/11/19 05:32:16;;;;;;;81.47;33.92;;;6.20;99.90;;;;;;5115353;28;20032;-63
2022/11/19 05:34:41;;;;;;;82.40;34.45;;;6.20;99.90;;;;;;5115599;28;20030;-63
2022/11/19 05:37:07;;;;;;;71.15;33.85;;;6.30;99.90;;;;;;5115459;28;20027;-63
2022/11/19 05:39:33;;;;;;;92.10;34.72;;;6.20;99.90;;;;;;5115334;28;20042;-62
2022/11/19 05:41:59;;;;;;;123.50;39.03;;;6.20;99.90;;;;;;5115320;28;20023;-63
2022/11/19 05:44:25;;;;;;;81.05;31.95;;;6.10;99.90;;;;;;5115391;28;20146;-63
2022/11/19 05:46:51;;;;;;;120.07;39.97;;;6.10;99.90;;;;;;5115333;28;20024;-63
2022/11/19 05:49:17;;;;;;;103.13;33.95;;;6.10;99.90;;;;;;5115151;28;20024;-63
2022/11/19 05:51:45;;;;;;;68.63;31.42;;;5.90;99.90;;;;;;5115217;28;20034;-63
2022/11/19 05:54:11;;;;;;;85.43;32.22;;;6.00;99.90;;;;;;5115220;28;20050;-62
2022/11/19 05:56:37;;;;;;;66.35;29.73;;;5.90;99.90;;;;;;5115147;28;20047;-63
2022/11/19 05:59:02;;;;;;;90.45;34.55;;;5.90;99.90;;;;;;5115116;28;20046;-63
2022/11/19 06:01:29;;;;;;;110.93;37.35;;;5.90;99.90;;;;;;5115013;28;20068;-62
2022/11/19 06:03:55;;;;;;;86.97;36.85;;;5.90;99.90;;;;;;5115109;28;20035;-63
2022/11/19 06:06:22;;;;;;;131.73;38.13;;;6.00;99.90;;;;;;5113588;28;20064;-63
2022/11/19 06:08:48;;;;;;;87.88;36.10;;;6.00;99.90;;;;;;5114875;28;20109;-63
2022/11/19 06:13:59;;;;;;;74.50;32.40;;;6.00;99.90;;;;;;5114686;28;20031;-63
2022/11/19 06:16:26;;;;;;;79.80;33.95;;;6.10;99.90;;;;;;5115102;28;20043;-63
2022/11/19 06:18:52;;;;;;;75.25;30.90;;;6.10;99.90;;;;;;5115114;28;20023;-63
2022/11/19 06:21:18;;;;;;;79.70;33.63;;;6.30;99.90;;;;;;5116518;28;20038;-63
2022/11/19 06:23:44;;;;;;;80.68;36.55;;;6.20;99.90;;;;;;5119184;28;20028;-63
2022/11/19 06:26:10;;;;;;;114.47;50.75;;;6.20;99.90;;;;;;5119032;28;20046;-63
2022/11/19 06:28:36;;;;;;;140.90;51.13;;;6.10;99.90;;;;;;5118918;28;20096;-63
2022/11/19 06:31:02;;;;;;;110.90;44.80;;;6.10;99.90;;;;;;5119076;28;20027;-63
2022/11/19 06:33:28;;;;;;;108.85;46.30;;;6.10;99.90;;;;;;5119019;28;20051;-63
2022/11/19 06:35:54;;;;;;;113.32;42.05;;;6.20;99.90;;;;;;5118811;28;20065;-62
2022/11/19 06:38:20;;;;;;;111.35;43.78;;;6.20;99.90;;;;;;5118900;28;20028;-63
2022/11/19 06:40:46;;;;;;;101.82;41.38;;;6.10;99.90;;;;;;5118864;28;20424;-63
2022/11/19 06:43:12;;;;;;;154.88;64.00;;;6.10;99.90;;;;;;5118716;28;20081;-63
2022/11/19 06:45:38;;;;;;;156.70;62.85;;;6.10;99.90;;;;;;5118659;28;20078;-63
2022/11/19 06:48:04;;;;;;;165.90;74.63;;;6.10;99.90;;;;;;5118574;28;20054;-62
2022/11/19 06:50:30;;;;;;;153.93;61.80;;;6.10;99.90;;;;;;5118470;28;20101;-62
2022/11/19 06:52:56;;;;;;;157.02;49.90;;;6.20;99.90;;;;;;5118623;28;20039;-63
2022/11/19 06:55:22;;;;;;;140.90;53.70;;;6.10;99.90;;;;;;5118550;28;20030;-63
2022/11/19 06:57:48;;;;;;;123.00;50.50;;;6.10;99.90;;;;;;5117033;28;20036;-63
2022/11/19 07:00:15;;;;;;;124.63;53.00;;;6.10;99.90;;;;;;5118511;28;20060;-63
2022/11/19 07:02:40;;;;;;;115.35;51.17;;;6.10;99.90;;;;;;5118400;28;20035;-62
2022/11/19 07:05:07;;;;;;;113.22;49.25;;;6.30;99.90;;;;;;5118134;27;20026;-62
2022/11/19 07:07:33;;;;;;;109.70;52.72;;;6.60;99.90;;;;;;5118306;28;20032;-63
2022/11/19 07:10:00;;;;;;;93.35;45.97;;;6.60;99.90;;;;;;5118252;28;20024;-63
2022/11/19 07:12:26;;;;;;;151.50;92.90;;;6.70;99.90;;;;;;5118177;28;20028;-63
2022/11/19 07:14:52;;;;;;;155.80;94.30;;;6.60;99.90;;;;;;5118022;28;20052;-62
2022/11/19 07:17:17;;;;;;;106.32;57.17;;;6.60;99.90;;;;;;5118138;28;20043;-63
2022/11/19 07:19:43;;;;;;;109.07;63.08;;;6.50;99.90;;;;;;5118001;28;20464;-63
2022/11/19 07:22:09;;;;;;;106.28;48.10;;;6.60;99.90;;;;;;5118119;28;20472;-63
2022/11/19 07:24:35;;;;;;;87.90;40.60;;;6.70;99.90;;;;;;5117916;28;20034;-62
2022/11/19 07:27:01;;;;;;;95.43;43.55;;;6.80;99.90;;;;;;5117934;28;20019;-63
2022/11/19 07:29:27;;;;;;;95.20;43.80;;;6.90;99.90;;;;;;5118004;28;20020;-63
2022/11/19 07:31:53;;;;;;;117.45;50.22;;;7.00;99.90;;;;;;5117726;28;20028;-63
2022/11/19 07:34:19;;;;;;;100.10;44.83;;;6.90;99.90;;;;;;5117206;28;20020;-63
2022/11/19 07:36:46;;;;;;;94.18;42.08;;;6.90;99.90;;;;;;5117805;28;20027;-63
2022/11/19 07:39:12;;;;;;;85.88;40.38;;;6.90;99.90;;;;;;5117978;28;20071;-63
2022/11/19 07:44:22;;;;;;;76.65;39.65;;;6.90;99.90;;;;;;5117525;28;20098;-64
2022/11/19 07:46:48;;;;;;;56.15;29.60;;;6.90;99.90;;;;;;5117516;28;20043;-64
2022/11/19 07:49:14;;;;;;;57.17;29.05;;;7.00;99.90;;;;;;5117358;28;20043;-62
2022/11/19 07:51:40;;;;;;;59.53;31.75;;;7.10;99.90;;;;;;5117472;28;20019;-62
2022/11/19 07:54:08;;;;;;;88.80;39.83;;;7.10;99.90;;;;;;5117288;28;20028;-62
2022/11/19 07:56:34;;;;;;;88.57;40.67;;;7.10;99.90;;;;;;5117395;28;20042;-62
2022/11/19 07:59:00;;;;;;;91.10;43.20;;;7.00;99.90;;;;;;5117343;28;20433;-62
2022/11/19 08:01:26;;;;;;;137.23;65.55;;;6.90;99.90;;;;;;5117222;28;20510;-62
2022/11/19 08:03:52;;;;;;;154.57;77.78;;;7.20;99.90;;;;;;5117526;28;20059;-62
2022/11/19 08:06:21;;;;;;;139.15;74.93;;;7.10;99.90;;;;;;5117015;28;20023;-62
2022/11/19 08:08:47;;;;;;;139.93;69.57;;;7.10;99.90;;;;;;5116966;28;20392;-62
2022/11/19 08:11:15;;;;;;;139.07;64.22;;;7.10;99.90;;;;;;5117182;28;20012;-62
2022/11/19 08:13:41;;;;;;;134.50;60.15;;;7.10;99.90;;;;;;5117011;28;20115;-62
2022/11/19 08:16:09;;;;;;;126.97;55.85;;;7.10;99.90;;;;;;5116730;27;20075;-62
2022/11/19 08:18:36;;;;;;;149.50;62.50;;;7.10;99.90;;;;;;5117026;28;20038;-62
2022/11/19 08:21:10;;;;;;;150.00;62.75;;;7.00;99.90;;;;;;5116830;28;20032;-63
2022/11/19 08:23:37;;;;;;;113.68;53.63;;;7.00;99.90;;;;;;5116883;28;20031;-62
2022/11/19 08:26:06;;;;;;;96.95;47.88;;;7.10;99.90;;;;;;5116815;28;20437;-62
2022/11/19 08:28:32;;;;;;;96.57;49.15;;;7.10;99.90;;;;;;5116582;28;20416;-62
2022/11/19 08:31:08;;;;;;;92.47;48.65;;;7.10;99.90;;;;;;5116719;28;20058;-62
2022/11/19 08:33:35;;;;;;;86.15;45.80;;;7.20;99.90;;;;;;5116621;28;20035;-63
2022/11/19 08:36:01;;;;;;;106.57;52.20;;;7.30;99.90;;;;;;5116522;28;20487;-62
2022/11/19 08:38:27;;;;;;;117.18;57.97;;;7.50;99.90;;;;;;5116618;28;20115;-62
2022/11/19 08:42:58;;;;;;;116.75;61.97;;;7.60;99.90;;;;;;5116471;28;20461;-63
2022/11/19 08:43:40;;;;;;;161.05;79.05;;;7.70;99.90;;;;;;5115988;28;20481;-62
2022/11/19 08:46:06;;;;;;;185.93;96.72;;;7.80;99.90;;;;;;5115553;28;20451;-62
2022/11/19 08:48:32;;;;;;;156.00;84.32;;;7.80;99.90;;;;;;5116519;28;20043;-63
2022/11/19 08:51:01;;;;;;;186.43;100.50;;;8.00;99.90;;;;;;5116290;28;20376;-63
2022/11/19 08:53:27;;;;;;;171.10;93.75;;;8.00;99.90;;;;;;5116268;28;20027;-63
2022/11/19 08:55:53;;;;;;;158.00;85.80;;;8.00;99.90;;;;;;5116679;27;20057;-62
2022/11/19 08:58:19;;;;;;;142.80;74.65;;;8.10;99.90;;;;;;5116107;28;20548;-63
2022/11/19 09:00:45;;;;;;;170.75;88.75;;;8.00;99.90;;;;;;5116117;28;20063;-63
2022/11/19 09:03:11;;;;;;;151.80;79.47;;;7.90;99.90;;;;;;5116405;28;20030;-63
2022/11/19 09:05:37;;;;;;;143.10;76.63;;;8.10;99.90;;;;;;5115867;28;20042;-63
2022/11/19 09:08:03;;;;;;;146.70;77.38;;;8.20;99.90;;;;;;5115961;28;20027;-63
2022/11/19 09:10:29;;;;;;;145.68;78.55;;;8.00;99.90;;;;;;5115824;28;20080;-62
2022/11/19 09:12:55;;;;;;;163.27;89.28;;;8.10;99.90;;;;;;5115840;28;20103;-63
2022/11/19 09:15:21;;;;;;;181.73;91.63;;;8.20;99.90;;;;;;5115722;28;20053;-62
2022/11/19 09:17:47;;;;;;;163.48;90.38;;;8.20;99.90;;;;;;5115814;28;20031;-63
2022/11/19 09:20:13;;;;;;;165.90;87.53;;;8.40;99.90;;;;;;5115696;28;20111;-63
2022/11/19 09:22:39;;;;;;;151.88;82.40;;;8.50;99.90;;;;;;5115653;28;20028;-63
2022/11/19 09:25:07;;;;;;;138.43;75.35;;;8.50;99.90;;;;;;5115624;28;20472;-63
2022/11/19 09:27:34;;;;;;;135.27;72.07;;;8.60;99.90;;;;;;5115660;28;20028;-63
2022/11/19 09:30:00;;;;;;;130.57;66.22;;;8.60;99.90;;;;;;5115575;28;20019;-63
2022/11/19 09:32:27;;;;;;;132.75;68.65;;;8.60;99.90;;;;;;5115472;28;20361;-63
2022/11/19 09:34:53;;;;;;;126.25;66.82;;;8.50;99.90;;;;;;5115552;28;20220;-63
2022/11/19 09:37:19;;;;;;;123.43;67.70;;;8.50;99.90;;;;;;5115460;28;20035;-63
2022/11/19 09:39:45;;;;;;;118.20;61.08;;;8.50;99.90;;;;;;5115434;28;20019;-63
2022/11/19 09:42:43;;;;;;;107.53;55.03;;;8.50;99.90;;;;;;5115393;28;20402;-63
2022/11/19 09:45:36;;;;;;;108.15;56.67;;;8.60;99.90;;;;;;5115244;28;20031;-63
2022/11/19 09:48:21;;;;;;;109.20;58.33;;;8.70;99.90;;;;;;5115115;28;20503;-63
2022/11/19 09:50:59;;;;;;;102.45;54.95;;;8.90;99.90;;;;;;5115089;28;20023;-63
2022/11/19 09:53:29;;;;;;;119.03;61.60;;;8.90;99.90;;;;;;5115418;28;20027;-63
2022/11/19 09:55:56;;;;;;;120.65;60.53;;;8.80;99.90;;;;;;5114756;28;20079;-63
2022/11/19 09:58:27;;;;;;;117.65;57.58;;;8.70;99.90;;;;;;5115366;28;20023;-63
2022/11/19 10:00:52;;;;;;;;;;;8.70;99.90;;;;;;5115537;28;20058;-63
2022/11/19 10:03:23;;;;;;;115.40;56.97;;;8.60;99.90;;;;;;5115080;28;20510;-63
2022/11/19 10:06:18;;;;;;;112.50;55.03;;;8.70;99.90;;;;;;5114917;28;20126;-63
2022/11/19 10:08:44;;;;;;;115.40;55.60;;;8.60;99.90;;;;;;5103974;28;20058;-63
2022/11/19 10:11:39;;;;;;;114.57;59.05;;;8.70;99.90;;;;;;5113755;28;20032;-63
2022/11/19 10:14:17;;;;;;;134.75;60.72;;;8.70;99.90;;;;;;5091897;28;20031;-63
2022/11/19 10:17:04;;;;;;;134.15;67.03;;;8.90;99.90;;;;;;5114872;28;20043;-63
2022/11/19 10:20:03;;;;;;;135.25;69.72;;;8.90;99.90;;;;;;5114777;28;20469;-63
2022/11/19 10:22:41;;;;;;;116.97;60.53;;;9.00;99.90;;;;;;5114781;28;20020;-63
2022/11/19 10:25:16;;;;;;;123.03;62.08;;;9.10;99.90;;;;;;5114838;28;20028;-63
2022/11/19 10:28:21;;;;;;;129.05;62.15;;;9.10;99.90;;;;;;5114826;28;20024;-63
2022/11/19 10:30:54;;;;;;;136.95;65.57;;;9.00;99.90;;;;;;5031776;28;20088;-63
2022/11/19 10:33:31;;;;;;;117.30;59.63;;;9.10;99.90;;;;;;5031757;28;20037;-63
2022/11/19 10:36:02;;;;;;;122.10;62.58;;;9.10;99.90;;;;;;5031867;28;20504;-63
2022/11/19 10:38:41;;;;;;;;;;;9.10;99.90;;;;;;5032050;28;20033;-63
2022/11/19 10:41:13;;;;;;;113.05;58.65;;;9.10;99.90;;;;;;5031736;28;19975;-63
2022/11/19 10:43:47;;;;;;;113.75;57.80;;;9.20;99.90;;;;;;5031721;28;20053;-63
2022/11/19 10:46:20;;;;;;;119.18;60.20;;;9.20;99.90;;;;;;5031594;28;20537;-63
2022/11/19 10:48:57;;;;;;;119.93;58.78;;;9.20;99.90;;;;;;5031517;28;20045;-63
2022/11/19 10:51:28;;;;;;;129.07;57.88;;;9.30;99.90;;;;;;5031747;28;20332;-63
2022/11/19 10:53:55;;;;;;;117.85;58.63;;;9.40;99.90;;;;;;5031426;28;20554;-63
2022/11/19 10:56:28;;;;;;;121.90;62.47;;;9.30;99.90;;;;;;5031641;28;20046;-63
2022/11/19 10:59:00;;;;;;;117.10;59.28;;;9.20;99.90;;;;;;5031410;28;20112;-63
2022/11/19 11:01:32;;;;;;;118.25;60.45;;;9.20;99.90;;;;;;5069246;28;20054;-63
2022/11/19 11:04:16;;;;;;;113.85;58.33;;;9.10;99.90;;;;;;5114565;28;20035;-63
2022/11/19 11:06:48;;;;;;;110.22;55.97;;;9.20;99.90;;;;;;5114159;28;20030;-63
2022/11/19 11:09:39;;;;;;;110.95;56.35;;;9.30;99.90;;;;;;5117476;28;20023;-63
2022/11/19 11:15:22;;;;;;;106.40;53.92;;;9.30;99.90;;;;;;5117984;28;20052;-63
2022/11/19 11:18:01;;;;;;;112.80;53.97;;;9.40;99.90;;;;;;5118089;28;20108;-63
2022/11/19 11:20:29;;;;;;;102.60;52.83;;;9.30;99.90;;;;;;5118046;28;20473;-63
2022/11/19 11:23:03;;;;;;;106.03;55.08;;;9.40;99.90;;;;;;5118209;28;20103;-63
2022/11/19 11:25:29;;;;;;;102.47;53.17;;;9.30;99.90;;;;;;5117847;28;20111;-63
2022/11/19 11:28:05;;;;;;;112.97;60.03;;;9.30;99.90;;;;;;5117925;28;20024;-63
2022/11/19 11:30:32;;;;;;;114.78;58.95;;;9.40;99.90;;;;;;5117732;28;20027;-63
2022/11/19 11:33:24;;;;;;;111.97;56.42;;;9.40;99.90;;;;;;5117753;28;20099;-63
2022/11/19 11:35:53;;;;;;;109.90;57.85;;;9.40;99.90;;;;;;5117790;28;20084;-63
2022/11/19 11:38:23;;;;;;;115.22;59.03;;;9.50;99.90;;;;;;5117770;28;20202;-63
2022/11/19 11:41:05;;;;;;;116.77;58.10;;;9.60;99.90;;;;;;5117675;28;20088;-63
2022/11/19 11:43:34;;;;;;;109.57;54.97;;;9.30;99.90;;;;;;5117615;28;20072;-63
2022/11/19 11:46:03;;;;;;;101.22;57.30;;;9.40;99.90;;;;;;5117692;28;20058;-63
2022/11/19 11:48:43;;;;;;;118.70;62.03;;;9.40;99.90;;;;;;5117305;28;20023;-63
2022/11/19 11:51:33;;;;;;;110.30;58.05;;;9.40;99.90;;;;;;5117309;28;20030;-63
2022/11/19 11:54:04;;;;;;;133.73;63.97;;;9.40;99.90;;;;;;5117352;28;20362;-63
2022/11/19 11:56:30;;;;;;;119.43;62.25;;;9.50;99.90;;;;;;5117308;28;20027;-63
2022/11/19 11:59:20;;;;;;;131.63;62.95;;;9.50;99.90;;;;;;5117377;28;20504;-63
2022/11/19 12:02:16;;;;;;;131.05;64.25;;;9.60;99.90;;;;;;5117224;28;20024;-63
2022/11/19 12:04:42;;;;;;;117.47;59.28;;;9.60;99.90;;;;;;5117058;28;20422;-63
2022/11/19 12:07:40;;;;;;;134.65;63.85;;;9.60;99.90;;;;;;5117138;28;20027;-63
2022/11/19 12:10:21;;;;;;;125.63;64.20;;;9.60;99.90;;;;;;5117037;28;20040;-63
2022/11/19 12:13:10;;;;;;;133.20;66.45;;;9.60;99.90;;;;;;5117142;28;20036;-63
2022/11/19 12:15:51;;;;;;;120.47;59.88;;;9.60;99.90;;;;;;5116919;28;20055;-63
2022/11/19 12:18:47;;;;;;;132.02;63.85;;;9.70;99.90;;;;;;5116658;28;20059;-63
2022/11/19 12:21:52;;;;;;;134.57;62.97;;;9.70;99.90;;;;;;5116839;28;20024;-62
2022/11/19 12:24:30;;;;;;;130.15;61.60;;;9.70;99.90;;;;;;5085177;28;20108;-63
2022/11/19 12:27:16;;;;;;;132.02;60.33;;;9.70;99.90;;;;;;5116662;28;20066;-63
2022/11/19 12:30:05;;;;;;;128.57;64.35;;;9.80;99.90;;;;;;5116685;28;20055;-63
2022/11/19 12:32:53;;;;;;;146.88;68.10;;;9.70;99.90;;;;;;5106111;28;20036;-62
2022/11/19 12:35:33;;;;;;;142.25;69.45;;;9.70;99.90;;;;;;5116454;28;20055;-63
2022/11/19 12:38:36;;;;;;;151.98;71.00;;;9.70;99.90;;;;;;5116453;28;20066;-63
2022/11/19 12:41:30;;;;;;;147.73;68.05;;;9.80;99.90;;;;;;5116449;28;20114;-62
2022/11/19 12:44:00;;;;;;;155.02;74.40;;;9.80;99.90;;;;;;5115213;28;20027;-63
2022/11/19 12:47:01;;;;;;;133.43;66.13;;;9.70;99.90;;;;;;5116229;28;20036;-63
2022/11/19 12:49:34;;;;;;;135.75;65.72;;;9.70;99.90;;;;;;5116262;28;20088;-63
2022/11/19 12:52:09;;;;;;;133.55;64.97;;;9.60;99.90;;;;;;5116141;28;20049;-63
2022/11/19 12:54:54;;;;;;;170.43;73.75;;;9.60;99.90;;;;;;5115948;28;20026;-63
2022/11/19 12:57:32;;;;;;;180.27;75.55;;;9.70;99.90;;;;;;5116153;28;20022;-62
2022/11/19 13:00:30;;;;;;;172.90;73.07;;;9.70;99.90;;;;;;5116092;28;20023;-63
2022/11/19 13:03:05;;;;;;;178.90;72.18;;;9.70;99.90;;;;;;5070656;28;20027;-63
2022/11/19 13:05:37;;;;;;;185.05;71.50;;;9.80;99.90;;;;;;5115788;28;20034;-63
2022/11/19 13:08:15;;;;;;;179.95;74.28;;;9.70;99.90;;;;;;5115915;28;20134;-63
2022/11/19 13:10:48;;;;;;;166.15;71.50;;;9.70;99.90;;;;;;5115788;28;20063;-63